Peyton, Colorado
Current Conditions -  °F | °C
As of 10:53 AM on Thursday 30 Oct 2014 (Local Time) from KFLY Reporting Station
Clear Clear  
Wind Chill: 53°   Ceiling: Unl
Heat Index: 53°   Visibility: 10mi
Dew Point: 23°   Wind: 7mph
Humidity: 31%   Direction: 60°ENE
Pressure: 30.44"   Gusts: NA
Location:  39.03°N, 104.48°W
Report Text: KFLY 301653Z AUTO 06006KT 10SM CLR 12/M05 A3044 RMK AO2 T01171051
Loading
Personal Weather Stations






























Interactive Weather Map
Tropical Storm Tracking
New forecast layout! Learn more

10-Day Weather Forecast

Advertisements
Track Severe Weather on mobile